PWSweather.com
Personal Weather Stations
Station Observations
KOHAVON11
Long Road Station, Avon, OH 44011

Long Road StationAvon, OH 44011

Lat: 41.437, Lon: -82.0477

Elevation: 686

Station Type: Davis Vantage Pro2

http://www.avon-weather.com

Latest ConditionsUpdated 9:14:18 AM EST Thursday, Nov 14, 2019
Currently Today's Max Today's Min Today's Average
Temperature 31.4°F-0.3°C 31.4°F-0.3°C 26.1°F-3.3°C 28.0°F-2.2°C
Dew Point 23.0°F-5.0°C 23.0°F-5.0°C 16.6°F-8.6°C 21.1°F-6.1°C
Winds 3.0 mph SW4.8 kmh SW 12.0 mph -19.3 kmh - - 5.3 mph 8.5 kmh
Wind Gusts 9.0 mph14.5 kmh 15.0 mph24.1 kmh - -
Humidity 71% 83% 64% 75%
Pressure 30.22 in1023.4 mb 30.22 in1023.4 mb 30.18 in1022.0 mb -
Hour Temp Dew Point Humidity Winds Wind Gusts Pressure Precip Precip Rate Daily Precip Total
09:14 AM 31.4°F-0.3°C 23.0°F-5.0°C 71% 3.0 mph SW4.8 kmh SW 9.0 mph14.5 kmh 30.22 in1023.4 mb 0.00 in0.0 mm 0.00 in0.0 mm 0.00 in0.0 mm
09:09 AM 31.2°F-0.4°C 22.8°F-5.1°C 71% 4.0 mph SSW6.4 kmh SSW 9.0 mph14.5 kmh 30.22 in1023.4 mb 0.00 in0.0 mm 0.00 in0.0 mm 0.00 in0.0 mm
09:04 AM 31.0°F-0.6°C 23.0°F-5.0°C 72% 2.0 mph S3.2 kmh S 9.0 mph14.5 kmh 30.21 in1023.0 mb 0.00 in0.0 mm 0.00 in0.0 mm 0.00 in0.0 mm
08:59 AM 30.8°F-0.7°C 22.8°F-5.1°C 72% 2.0 mph SW3.2 kmh SW 5.0 mph8.0 kmh 30.21 in1023.0 mb 0.00 in0.0 mm 0.00 in0.0 mm 0.00 in0.0 mm
08:54 AM 30.6°F-0.8°C 22.6°F-5.2°C 72% 3.0 mph SW4.8 kmh SW 10.0 mph16.1 kmh 30.21 in1023.0 mb 0.00 in0.0 mm 0.00 in0.0 mm 0.00 in0.0 mm
08:49 AM 30.4°F-0.9°C 22.4°F-5.3°C 72% 1.0 mph WSW1.6 kmh WSW 10.0 mph16.1 kmh 30.22 in1023.4 mb 0.00 in0.0 mm 0.00 in0.0 mm 0.00 in0.0 mm
08:44 AM 30.3°F-0.9°C 22.3°F-5.4°C 72% 3.0 mph SW4.8 kmh SW 11.0 mph17.7 kmh 30.21 in1023.0 mb 0.00 in0.0 mm 0.00 in0.0 mm 0.00 in0.0 mm
08:39 AM 30.1°F-1.1°C 22.4°F-5.3°C 73% 7.0 mph S11.3 kmh S 11.0 mph17.7 kmh 30.21 in1023.0 mb 0.00 in0.0 mm 0.00 in0.0 mm 0.00 in0.0 mm
08:34 AM 30.0°F-1.1°C 22.3°F-5.4°C 73% 3.0 mph S4.8 kmh S 11.0 mph17.7 kmh 30.20 in1022.7 mb 0.00 in0.0 mm 0.00 in0.0 mm 0.00 in0.0 mm
08:29 AM 29.9°F-1.2°C 22.2°F-5.4°C 73% 7.0 mph S11.3 kmh S 11.0 mph17.7 kmh 30.20 in1022.7 mb 0.00 in0.0 mm 0.00 in0.0 mm 0.00 in0.0 mm
08:24 AM 29.8°F-1.2°C 22.5°F-5.3°C 74% 7.0 mph SSW11.3 kmh SSW 9.0 mph14.5 kmh 30.21 in1023.0 mb 0.00 in0.0 mm 0.00 in0.0 mm 0.00 in0.0 mm
08:19 AM 29.7°F-1.3°C 22.4°F-5.3°C 74% 4.0 mph SSW6.4 kmh SSW 8.0 mph12.9 kmh 30.21 in1023.0 mb 0.00 in0.0 mm 0.00 in0.0 mm 0.00 in0.0 mm
08:14 AM 29.6°F-1.3°C 22.3°F-5.4°C 74% 4.0 mph SW6.4 kmh SW 8.0 mph12.9 kmh 30.21 in1023.0 mb 0.00 in0.0 mm 0.00 in0.0 mm 0.00 in0.0 mm
08:09 AM 29.5°F-1.4°C 22.2°F-5.4°C 74% 4.0 mph SSW6.4 kmh SSW 8.0 mph12.9 kmh 30.21 in1023.0 mb 0.00 in0.0 mm 0.00 in0.0 mm 0.00 in0.0 mm
08:04 AM 29.5°F-1.4°C 22.5°F-5.3°C 75% 7.0 mph S11.3 kmh S 8.0 mph12.9 kmh 30.20 in1022.7 mb 0.00 in0.0 mm 0.00 in0.0 mm 0.00 in0.0 mm
07:59 AM 29.4°F-1.4°C 22.4°F-5.3°C 75% 4.0 mph SW6.4 kmh SW 9.0 mph14.5 kmh 30.20 in1022.7 mb 0.00 in0.0 mm 0.00 in0.0 mm 0.00 in0.0 mm
07:54 AM 29.3°F-1.5°C 22.3°F-5.4°C 75% 4.0 mph S6.4 kmh S 9.0 mph14.5 kmh 30.20 in1022.7 mb 0.00 in0.0 mm 0.00 in0.0 mm 0.00 in0.0 mm
07:49 AM 29.3°F-1.5°C 22.3°F-5.4°C 75% 6.0 mph SW9.7 kmh SW 9.0 mph14.5 kmh 30.20 in1022.7 mb 0.00 in0.0 mm 0.00 in0.0 mm 0.00 in0.0 mm
07:44 AM 29.2°F-1.6°C 22.2°F-5.4°C 75% 2.0 mph SW3.2 kmh SW 9.0 mph14.5 kmh 30.20 in1022.7 mb 0.00 in0.0 mm 0.00 in0.0 mm 0.00 in0.0 mm
07:39 AM 29.1°F-1.6°C 22.4°F-5.3°C 76% 6.0 mph S9.7 kmh S 8.0 mph12.9 kmh 30.20 in1022.7 mb 0.00 in0.0 mm 0.00 in0.0 mm 0.00 in0.0 mm
07:34 AM 29.1°F-1.6°C 22.4°F-5.3°C 76% 5.0 mph SSW8.0 kmh SSW 8.0 mph12.9 kmh 30.20 in1022.7 mb 0.00 in0.0 mm 0.00 in0.0 mm 0.00 in0.0 mm
07:29 AM 29.0°F-1.7°C 22.3°F-5.4°C 76% 7.0 mph SSW11.3 kmh SSW 8.0 mph12.9 kmh 30.19 in1022.4 mb 0.00 in0.0 mm 0.00 in0.0 mm 0.00 in0.0 mm
07:24 AM 29.0°F-1.7°C 22.7°F-5.2°C 77% 7.0 mph S11.3 kmh S 8.0 mph12.9 kmh 30.19 in1022.4 mb 0.00 in0.0 mm 0.00 in0.0 mm 0.00 in0.0 mm
07:19 AM 29.0°F-1.7°C 22.7°F-5.2°C 77% 7.0 mph S11.3 kmh S 8.0 mph12.9 kmh 30.19 in1022.4 mb 0.00 in0.0 mm 0.00 in0.0 mm 0.00 in0.0 mm
07:14 AM 29.0°F-1.7°C 22.7°F-5.2°C 77% 6.0 mph SSW9.7 kmh SSW 8.0 mph12.9 kmh 30.19 in1022.4 mb 0.00 in0.0 mm 0.00 in0.0 mm 0.00 in0.0 mm
07:09 AM 28.9°F-1.7°C 22.6°F-5.2°C 77% 4.0 mph S6.4 kmh S 8.0 mph12.9 kmh 30.19 in1022.4 mb 0.00 in0.0 mm 0.00 in0.0 mm 0.00 in0.0 mm
07:04 AM 28.9°F-1.7°C 22.6°F-5.2°C 77% 6.0 mph S9.7 kmh S 8.0 mph12.9 kmh 30.19 in1022.4 mb 0.00 in0.0 mm 0.00 in0.0 mm 0.00 in0.0 mm
06:59 AM 28.9°F-1.7°C 22.6°F-5.2°C 77% 3.0 mph SSW4.8 kmh SSW 8.0 mph12.9 kmh 30.19 in1022.4 mb 0.00 in0.0 mm 0.00 in0.0 mm 0.00 in0.0 mm
06:54 AM 28.9°F-1.7°C 22.6°F-5.2°C 77% 6.0 mph S9.7 kmh S 8.0 mph12.9 kmh 30.19 in1022.4 mb 0.00 in0.0 mm 0.00 in0.0 mm 0.00 in0.0 mm
06:49 AM 28.9°F-1.7°C 22.6°F-5.2°C 77% 5.0 mph S8.0 kmh S 7.0 mph11.3 kmh 30.19 in1022.4 mb 0.00 in0.0 mm 0.00 in0.0 mm 0.00 in0.0 mm
06:44 AM 28.9°F-1.7°C 22.6°F-5.2°C 77% 5.0 mph SSW8.0 kmh SSW 7.0 mph11.3 kmh 30.19 in1022.4 mb 0.00 in0.0 mm 0.00 in0.0 mm 0.00 in0.0 mm
06:39 AM 28.9°F-1.7°C 22.6°F-5.2°C 77% 5.0 mph SSW8.0 kmh SSW 9.0 mph14.5 kmh 30.19 in1022.4 mb 0.00 in0.0 mm 0.00 in0.0 mm 0.00 in0.0 mm
06:34 AM 28.9°F-1.7°C 22.6°F-5.2°C 77% 3.0 mph SSW4.8 kmh SSW 9.0 mph14.5 kmh 30.18 in1022.0 mb 0.00 in0.0 mm 0.00 in0.0 mm 0.00 in0.0 mm
06:29 AM 28.9°F-1.7°C 22.6°F-5.2°C 77% 4.0 mph SSW6.4 kmh SSW 10.0 mph16.1 kmh 30.18 in1022.0 mb 0.00 in0.0 mm 0.00 in0.0 mm 0.00 in0.0 mm
06:24 AM 28.8°F-1.8°C 22.5°F-5.3°C 77% 4.0 mph SSW6.4 kmh SSW 10.0 mph16.1 kmh 30.18 in1022.0 mb 0.00 in0.0 mm 0.00 in0.0 mm 0.00 in0.0 mm
06:19 AM 28.8°F-1.8°C 22.5°F-5.3°C 77% 5.0 mph S8.0 kmh S 10.0 mph16.1 kmh 30.18 in1022.0 mb 0.00 in0.0 mm 0.00 in0.0 mm 0.00 in0.0 mm
06:14 AM 28.8°F-1.8°C 22.5°F-5.3°C 77% 5.0 mph SSW8.0 kmh SSW 10.0 mph16.1 kmh 30.18 in1022.0 mb 0.00 in0.0 mm 0.00 in0.0 mm 0.00 in0.0 mm
06:09 AM 28.7°F-1.8°C 22.4°F-5.3°C 77% 5.0 mph SSW8.0 kmh SSW 8.0 mph12.9 kmh 30.18 in1022.0 mb 0.00 in0.0 mm 0.00 in0.0 mm 0.00 in0.0 mm
06:04 AM 28.6°F-1.9°C 22.3°F-5.4°C 77% 6.0 mph SW9.7 kmh SW 8.0 mph12.9 kmh 30.19 in1022.4 mb 0.00 in0.0 mm 0.00 in0.0 mm 0.00 in0.0 mm
05:59 AM 28.6°F-1.9°C 22.3°F-5.4°C 77% 6.0 mph S9.7 kmh S 9.0 mph14.5 kmh 30.18 in1022.0 mb 0.00 in0.0 mm 0.00 in0.0 mm 0.00 in0.0 mm
05:54 AM 28.6°F-1.9°C 22.3°F-5.4°C 77% 5.0 mph S8.0 kmh S 9.0 mph14.5 kmh 30.18 in1022.0 mb 0.00 in0.0 mm 0.00 in0.0 mm 0.00 in0.0 mm
05:49 AM 28.5°F-1.9°C 22.2°F-5.4°C 77% 4.0 mph SSW6.4 kmh SSW 9.0 mph14.5 kmh 30.18 in1022.0 mb 0.00 in0.0 mm 0.00 in0.0 mm 0.00 in0.0 mm
05:44 AM 28.4°F-2.0°C 22.4°F-5.3°C 78% 5.0 mph SSE8.0 kmh SSE 9.0 mph14.5 kmh 30.18 in1022.0 mb 0.00 in0.0 mm 0.00 in0.0 mm 0.00 in0.0 mm
05:39 AM 28.3°F-2.1°C 22.3°F-5.4°C 78% 6.0 mph S9.7 kmh S 8.0 mph12.9 kmh 30.18 in1022.0 mb 0.00 in0.0 mm 0.00 in0.0 mm 0.00 in0.0 mm
05:34 AM 28.3°F-2.1°C 22.3°F-5.4°C 78% 5.0 mph S8.0 kmh S 8.0 mph12.9 kmh 30.19 in1022.4 mb 0.00 in0.0 mm 0.00 in0.0 mm 0.00 in0.0 mm
05:29 AM 28.1°F-2.2°C 22.4°F-5.3°C 79% 6.0 mph SSW9.7 kmh SSW 8.0 mph12.9 kmh 30.18 in1022.0 mb 0.00 in0.0 mm 0.00 in0.0 mm 0.00 in0.0 mm
05:24 AM 28.1°F-2.2°C 22.4°F-5.3°C 79% 4.0 mph SSW6.4 kmh SSW 9.0 mph14.5 kmh 30.19 in1022.4 mb 0.00 in0.0 mm 0.00 in0.0 mm 0.00 in0.0 mm
05:19 AM 27.9°F-2.3°C 22.5°F-5.3°C 80% 4.0 mph SSW6.4 kmh SSW 9.0 mph14.5 kmh 30.18 in1022.0 mb 0.00 in0.0 mm 0.00 in0.0 mm 0.00 in0.0 mm
05:14 AM 27.8°F-2.3°C 22.4°F-5.3°C 80% 5.0 mph S8.0 kmh S 9.0 mph14.5 kmh 30.18 in1022.0 mb 0.00 in0.0 mm 0.00 in0.0 mm 0.00 in0.0 mm
05:09 AM 27.7°F-2.4°C 22.3°F-5.4°C 80% 5.0 mph SSW8.0 kmh SSW 9.0 mph14.5 kmh 30.19 in1022.4 mb 0.00 in0.0 mm 0.00 in0.0 mm 0.00 in0.0 mm
05:04 AM 27.6°F-2.4°C 22.5°F-5.3°C 81% 3.0 mph S4.8 kmh S 9.0 mph14.5 kmh 30.18 in1022.0 mb 0.00 in0.0 mm 0.00 in0.0 mm 0.00 in0.0 mm
04:59 AM 27.5°F-2.5°C 22.4°F-5.3°C 81% 7.0 mph SSW11.3 kmh SSW 10.0 mph16.1 kmh 30.18 in1022.0 mb 0.00 in0.0 mm 0.00 in0.0 mm 0.00 in0.0 mm
04:54 AM 27.4°F-2.6°C 22.3°F-5.4°C 81% 6.0 mph S9.7 kmh S 10.0 mph16.1 kmh 30.18 in1022.0 mb 0.00 in0.0 mm 0.00 in0.0 mm 0.00 in0.0 mm
04:49 AM 27.3°F-2.6°C 22.2°F-5.4°C 81% 2.0 mph SSE3.2 kmh SSE 11.0 mph17.7 kmh 30.18 in1022.0 mb 0.00 in0.0 mm 0.00 in0.0 mm 0.00 in0.0 mm
04:44 AM 27.2°F-2.7°C 22.4°F-5.3°C 82% 6.0 mph SW9.7 kmh SW 11.0 mph17.7 kmh 30.18 in1022.0 mb 0.00 in0.0 mm 0.00 in0.0 mm 0.00 in0.0 mm
04:39 AM 27.1°F-2.7°C 22.4°F-5.3°C 82% 5.0 mph SSW8.0 kmh SSW 14.0 mph22.5 kmh 30.18 in1022.0 mb 0.00 in0.0 mm 0.00 in0.0 mm 0.00 in0.0 mm
04:34 AM 27.0°F-2.8°C 22.3°F-5.4°C 82% 8.0 mph S12.9 kmh S 14.0 mph22.5 kmh 30.18 in1022.0 mb 0.00 in0.0 mm 0.00 in0.0 mm 0.00 in0.0 mm
04:29 AM 26.9°F-2.8°C 22.2°F-5.4°C 82% 7.0 mph S11.3 kmh S 14.0 mph22.5 kmh 30.18 in1022.0 mb 0.00 in0.0 mm 0.00 in0.0 mm 0.00 in0.0 mm
04:24 AM 26.8°F-2.9°C 22.4°F-5.3°C 83% 8.0 mph S12.9 kmh S 14.0 mph22.5 kmh 30.18 in1022.0 mb 0.00 in0.0 mm 0.00 in0.0 mm 0.00 in0.0 mm
04:19 AM 26.7°F-2.9°C 22.3°F-5.4°C 83% 8.0 mph S12.9 kmh S 11.0 mph17.7 kmh 30.18 in1022.0 mb 0.00 in0.0 mm 0.00 in0.0 mm 0.00 in0.0 mm
04:14 AM 26.6°F-3.0°C 22.2°F-5.4°C 83% 7.0 mph S11.3 kmh S 10.0 mph16.1 kmh 30.18 in1022.0 mb 0.00 in0.0 mm 0.00 in0.0 mm 0.00 in0.0 mm
04:09 AM 26.6°F-3.0°C 22.2°F-5.4°C 83% 7.0 mph S11.3 kmh S 10.0 mph16.1 kmh 30.18 in1022.0 mb 0.00 in0.0 mm 0.00 in0.0 mm 0.00 in0.0 mm
04:04 AM 26.5°F-3.1°C 22.1°F-5.5°C 83% 5.0 mph S8.0 kmh S 10.0 mph16.1 kmh 30.18 in1022.0 mb 0.00 in0.0 mm 0.00 in0.0 mm 0.00 in0.0 mm
03:59 AM 26.4°F-3.1°C 22.0°F-5.6°C 83% 7.0 mph S11.3 kmh S 10.0 mph16.1 kmh 30.18 in1022.0 mb 0.00 in0.0 mm 0.00 in0.0 mm 0.00 in0.0 mm
03:54 AM 26.4°F-3.1°C 22.0°F-5.6°C 83% 7.0 mph S11.3 kmh S 9.0 mph14.5 kmh 30.18 in1022.0 mb 0.00 in0.0 mm 0.00 in0.0 mm 0.00 in0.0 mm
03:49 AM 26.3°F-3.2°C 21.9°F-5.6°C 83% 3.0 mph SSW4.8 kmh SSW 8.0 mph12.9 kmh 30.18 in1022.0 mb 0.00 in0.0 mm 0.00 in0.0 mm 0.00 in0.0 mm
03:44 AM 26.3°F-3.2°C 21.9°F-5.6°C 83% 7.0 mph SSW11.3 kmh SSW 8.0 mph12.9 kmh 30.18 in1022.0 mb 0.00 in0.0 mm 0.00 in0.0 mm 0.00 in0.0 mm
03:39 AM 26.2°F-3.2°C 21.8°F-5.7°C 83% Calm Calm 8.0 mph12.9 kmh 30.18 in1022.0 mb 0.00 in0.0 mm 0.00 in0.0 mm 0.00 in0.0 mm
03:34 AM 26.2°F-3.2°C 21.8°F-5.7°C 83% 1.0 mph S1.6 kmh S 8.0 mph12.9 kmh 30.18 in1022.0 mb 0.00 in0.0 mm 0.00 in0.0 mm 0.00 in0.0 mm
03:29 AM 26.1°F-3.3°C 21.4°F-5.9°C 82% 8.0 mph S12.9 kmh S 8.0 mph12.9 kmh 30.18 in1022.0 mb 0.00 in0.0 mm 0.00 in0.0 mm 0.00 in0.0 mm
03:24 AM 26.1°F-3.3°C 21.4°F-5.9°C 82% 7.0 mph S11.3 kmh S 7.0 mph11.3 kmh 30.18 in1022.0 mb 0.00 in0.0 mm 0.00 in0.0 mm 0.00 in0.0 mm
03:19 AM 26.1°F-3.3°C 21.4°F-5.9°C 82% 2.0 mph S3.2 kmh S 5.0 mph8.0 kmh 30.18 in1022.0 mb 0.00 in0.0 mm 0.00 in0.0 mm 0.00 in0.0 mm
03:14 AM 26.1°F-3.3°C 21.4°F-5.9°C 82% 1.0 mph S1.6 kmh S 5.0 mph8.0 kmh 30.19 in1022.4 mb 0.00 in0.0 mm 0.00 in0.0 mm 0.00 in0.0 mm
03:09 AM 26.1°F-3.3°C 21.4°F-5.9°C 82% 1.0 mph S1.6 kmh S 6.0 mph9.7 kmh 30.19 in1022.4 mb 0.00 in0.0 mm 0.00 in0.0 mm 0.00 in0.0 mm
03:04 AM 26.1°F-3.3°C 21.1°F-6.1°C 81% 1.0 mph SE1.6 kmh SE 6.0 mph9.7 kmh 30.20 in1022.7 mb 0.00 in0.0 mm 0.00 in0.0 mm 0.00 in0.0 mm
02:59 AM 26.1°F-3.3°C 21.1°F-6.1°C 81% 1.0 mph SSE1.6 kmh SSE 6.0 mph9.7 kmh 30.20 in1022.7 mb 0.00 in0.0 mm 0.00 in0.0 mm 0.00 in0.0 mm
02:54 AM 26.1°F-3.3°C 21.1°F-6.1°C 81% 3.0 mph SE4.8 kmh SE 6.0 mph9.7 kmh 30.20 in1022.7 mb 0.00 in0.0 mm 0.00 in0.0 mm 0.00 in0.0 mm
02:49 AM 26.2°F-3.2°C 20.9°F-6.2°C 80% 3.0 mph SE4.8 kmh SE 7.0 mph11.3 kmh 30.19 in1022.4 mb 0.00 in0.0 mm 0.00 in0.0 mm 0.00 in0.0 mm
02:44 AM 26.3°F-3.2°C 21.0°F-6.1°C 80% 4.0 mph SSE6.4 kmh SSE 7.0 mph11.3 kmh 30.20 in1022.7 mb 0.00 in0.0 mm 0.00 in0.0 mm 0.00 in0.0 mm
02:39 AM 26.3°F-3.2°C 21.0°F-6.1°C 80% 5.0 mph SE8.0 kmh SE 7.0 mph11.3 kmh 30.20 in1022.7 mb 0.00 in0.0 mm 0.00 in0.0 mm 0.00 in0.0 mm
02:34 AM 26.5°F-3.1°C 20.9°F-6.2°C 79% 6.0 mph S9.7 kmh S 7.0 mph11.3 kmh 30.20 in1022.7 mb 0.00 in0.0 mm 0.00 in0.0 mm 0.00 in0.0 mm
02:29 AM 26.6°F-3.0°C 20.7°F-6.3°C 78% 5.0 mph SSW8.0 kmh SSW 9.0 mph14.5 kmh 30.20 in1022.7 mb 0.00 in0.0 mm 0.00 in0.0 mm 0.00 in0.0 mm
02:24 AM 26.7°F-2.9°C 20.4°F-6.4°C 77% 5.0 mph SSW8.0 kmh SSW 9.0 mph14.5 kmh 30.21 in1023.0 mb 0.00 in0.0 mm 0.00 in0.0 mm 0.00 in0.0 mm
02:19 AM 26.8°F-2.9°C 20.2°F-6.6°C 76% 4.0 mph SSW6.4 kmh SSW 10.0 mph16.1 kmh 30.21 in1023.0 mb 0.00 in0.0 mm 0.00 in0.0 mm 0.00 in0.0 mm
02:14 AM 26.9°F-2.8°C 20.0°F-6.7°C 75% 4.0 mph SSW6.4 kmh SSW 10.0 mph16.1 kmh 30.21 in1023.0 mb 0.00 in0.0 mm 0.00 in0.0 mm 0.00 in0.0 mm
02:09 AM 27.1°F-2.7°C 19.9°F-6.7°C 74% 5.0 mph SSW8.0 kmh SSW 11.0 mph17.7 kmh 30.22 in1023.4 mb 0.00 in0.0 mm 0.00 in0.0 mm 0.00 in0.0 mm
02:04 AM 27.2°F-2.7°C 19.6°F-6.9°C 73% 7.0 mph SW11.3 kmh SW 11.0 mph17.7 kmh 30.21 in1023.0 mb 0.00 in0.0 mm 0.00 in0.0 mm 0.00 in0.0 mm
01:59 AM 27.3°F-2.6°C 19.4°F-7.0°C 72% 6.0 mph SW9.7 kmh SW 13.0 mph20.9 kmh 30.22 in1023.4 mb 0.00 in0.0 mm 0.00 in0.0 mm 0.00 in0.0 mm
01:54 AM 27.5°F-2.5°C 19.3°F-7.1°C 71% 7.0 mph SW11.3 kmh SW 13.0 mph20.9 kmh 30.22 in1023.4 mb 0.00 in0.0 mm 0.00 in0.0 mm 0.00 in0.0 mm
01:49 AM 27.6°F-2.4°C 19.0°F-7.2°C 70% 9.0 mph SSW14.5 kmh SSW 15.0 mph24.1 kmh 30.22 in1023.4 mb 0.00 in0.0 mm 0.00 in0.0 mm 0.00 in0.0 mm
01:44 AM 27.8°F-2.3°C 18.9°F-7.3°C 69% 11.0 mph SW17.7 kmh SW 15.0 mph24.1 kmh 30.21 in1023.0 mb 0.00 in0.0 mm 0.00 in0.0 mm 0.00 in0.0 mm
01:39 AM 27.8°F-2.3°C 18.2°F-7.7°C 67% 10.0 mph WSW16.1 kmh WSW 15.0 mph24.1 kmh 30.21 in1023.0 mb 0.00 in0.0 mm 0.00 in0.0 mm 0.00 in0.0 mm
01:34 AM 27.9°F-2.3°C 17.9°F-7.8°C 66% 7.0 mph SW11.3 kmh SW 15.0 mph24.1 kmh 30.21 in1023.0 mb 0.00 in0.0 mm 0.00 in0.0 mm 0.00 in0.0 mm
01:29 AM 27.9°F-2.3°C 17.5°F-8.1°C 65% 7.0 mph S11.3 kmh S 15.0 mph24.1 kmh 30.21 in1023.0 mb 0.00 in0.0 mm 0.00 in0.0 mm 0.00 in0.0 mm
01:24 AM 27.9°F-2.3°C 17.5°F-8.1°C 65% 7.0 mph SW11.3 kmh SW 15.0 mph24.1 kmh 30.21 in1023.0 mb 0.00 in0.0 mm 0.00 in0.0 mm 0.00 in0.0 mm
01:19 AM 27.9°F-2.3°C 17.2°F-8.2°C 64% 11.0 mph SW17.7 kmh SW 12.0 mph19.3 kmh 30.20 in1022.7 mb 0.00 in0.0 mm 0.00 in0.0 mm 0.00 in0.0 mm
01:14 AM 27.9°F-2.3°C 17.2°F-8.2°C 64% 12.0 mph SW19.3 kmh SW 14.0 mph22.5 kmh 30.20 in1022.7 mb 0.00 in0.0 mm 0.00 in0.0 mm 0.00 in0.0 mm
01:09 AM 27.9°F-2.3°C 17.2°F-8.2°C 64% 11.0 mph SW17.7 kmh SW 14.0 mph22.5 kmh 30.20 in1022.7 mb 0.00 in0.0 mm 0.00 in0.0 mm 0.00 in0.0 mm
01:04 AM 27.8°F-2.3°C 17.1°F-8.3°C 64% 6.0 mph SSW9.7 kmh SSW 14.0 mph22.5 kmh 30.19 in1022.4 mb 0.00 in0.0 mm 0.00 in0.0 mm 0.00 in0.0 mm
12:59 AM 27.8°F-2.3°C 17.1°F-8.3°C 64% 6.0 mph SW9.7 kmh SW 14.0 mph22.5 kmh 30.19 in1022.4 mb 0.00 in0.0 mm 0.00 in0.0 mm 0.00 in0.0 mm
12:54 AM 27.7°F-2.4°C 17.0°F-8.3°C 64% 7.0 mph SSW11.3 kmh SSW 13.0 mph20.9 kmh 30.19 in1022.4 mb 0.00 in0.0 mm 0.00 in0.0 mm 0.00 in0.0 mm
12:49 AM 27.7°F-2.4°C 17.0°F-8.3°C 64% 6.0 mph S9.7 kmh S 13.0 mph20.9 kmh 30.19 in1022.4 mb 0.00 in0.0 mm 0.00 in0.0 mm 0.00 in0.0 mm
12:44 AM 27.7°F-2.4°C 17.0°F-8.3°C 64% 6.0 mph SSE9.7 kmh SSE 13.0 mph20.9 kmh 30.19 in1022.4 mb 0.00 in0.0 mm 0.00 in0.0 mm 0.00 in0.0 mm
12:39 AM 27.6°F-2.4°C 16.9°F-8.4°C 64% 7.0 mph SE11.3 kmh SE 13.0 mph20.9 kmh 30.19 in1022.4 mb 0.00 in0.0 mm 0.00 in0.0 mm 0.00 in0.0 mm
12:34 AM 27.6°F-2.4°C 16.9°F-8.4°C 64% 8.0 mph S12.9 kmh S 14.0 mph22.5 kmh 30.19 in1022.4 mb 0.00 in0.0 mm 0.00 in0.0 mm 0.00 in0.0 mm
12:29 AM 27.6°F-2.4°C 16.9°F-8.4°C 64% 8.0 mph S12.9 kmh S 14.0 mph22.5 kmh 30.19 in1022.4 mb 0.00 in0.0 mm 0.00 in0.0 mm 0.00 in0.0 mm
12:24 AM 27.5°F-2.5°C 16.8°F-8.4°C 64% 9.0 mph S14.5 kmh S 14.0 mph22.5 kmh 30.19 in1022.4 mb 0.00 in0.0 mm 0.00 in0.0 mm 0.00 in0.0 mm
12:19 AM 27.4°F-2.6°C 16.7°F-8.5°C 64% 5.0 mph SSE8.0 kmh SSE 14.0 mph22.5 kmh 30.19 in1022.4 mb 0.00 in0.0 mm 0.00 in0.0 mm 0.00 in0.0 mm
12:14 AM 27.4°F-2.6°C 16.7°F-8.5°C 64% 5.0 mph S8.0 kmh S 13.0 mph20.9 kmh 30.19 in1022.4 mb 0.00 in0.0 mm 0.00 in0.0 mm 0.00 in0.0 mm
12:09 AM 27.3°F-2.6°C 16.6°F-8.6°C 64% 6.0 mph SSE9.7 kmh SSE 13.0 mph20.9 kmh 30.19 in1022.4 mb 0.00 in0.0 mm 0.00 in0.0 mm 0.00 in0.0 mm
12:04 AM 27.3°F-2.6°C 16.6°F-8.6°C 64% 3.0 mph SSW4.8 kmh SSW 14.0 mph22.5 kmh 30.19 in1022.4 mb 0.00 in0.0 mm 0.00 in0.0 mm 0.00 in0.0 mm